moyenne Dist SO St PEE sur Nivelle 270810 - D

Date : 27/08/2010

Place Nom Licence Catégorie Club Temps Points
1 PONCET Jean-Pierre 16756 H60 3913BF 0:22:38 5705
2 COLOMBET Christian 3163 H65 2108BF 0:25:40 5030
3 ANTOINE Alain 1270 H60 2605AR 0:26:19 4906
4 LE ROUX Jacques 2857 H60 3502BR 0:26:42 4836
5 MASCARELL Henri 8928 H60 6911AR 0:27:08 4758
6 EVEN Gabriel 2789 H65 2206BR 0:27:30 4695
7 PREVOST Pascale 922 D50 7707IF 0:28:13 4576
8 SINIBALDI Marc 1347 H65 3801AR 0:28:19 4560
9 JOUZEAU Georges 9472 H60 7404AR 0:28:31 4528
10 MENUT J-Claude 1656 H60 7703IF 0:28:53 4470
11 KENANE Abdelkader 1448 H70 5501GE 0:28:57 4460
12 DAYRIES Michel 10888 H70 4012NA 0:29:28 4382
13 CAMPBELL Jane 17406 D50 7807IF 0:29:40 4352
14 DUFOUR Marcel 2343 H60 2604AR 0:29:52 4323
15 GEOFFROY Gerard 6442 H60 3408OC 0:29:54 4318
16 ALLANCON Michel 1005 H60 2906BR 0:29:59 4306
17 BARBIER Yves 2030 H65 1705NA 0:30:00 4304
18 VANNIER Bernard 2119 H65 7703IF 0:30:07 4287
19 AMET Marion 14575 D16 8809GE 0:30:26 4243
20 VANOVERBERGHE Camille 21323 D16 6208HF 0:30:31 4231
21 AUBRY Maurice 1509 H60 5402GE 0:30:32 4229
22 COURNUT Alain 626 H60 3308NA 0:30:36 4219
23 HELIOT Claude 2349 H70 2604AR 0:30:53 4181
24 BAUDOIN Jean-Paul 16352 H60 0615PZ 0:31:14 4134
25 ROBERT Christian 1086 H60 7004BF 0:31:18 4125
26 SZNAIDER Patrick 3556 H60 0615PZ 0:31:18 4125
27 VERDIN Alix 15276 D16 7109BF 0:31:29 4101
28 EJSMONT Jean 5597 H60 6208HF 0:31:36 4086
29 LARMINACH Andre 646 H65 3308NA 0:31:39 4079
30 MOUYON Elisa 20101 D16 2606AR 0:31:44 4069
31 SOL Michel 933 H60 7707IF 0:31:47 4062
32 CROCHET Gerard 2817 H70 1705NA 0:31:49 4058
33 GUILMAIN Melanie 20572 D16 6208HF 0:31:55 4045
34 CABON Herve 95 H60 2904BR 0:31:56 4043
35 VOGT Claude 2558 H60 6709GE 0:32:30 3973
36 EUZEN J-Paul 16403 H70 6911AR 0:32:34 3965
37 SIMONET Jean 930 H65 7707IF 0:32:51 3930
38 DONNARD J-Pierre 561 H60 4504CE 0:32:57 3918
39 JEQUEL Yann 3086 H60 4403PL 0:33:15 3883
40 DUBROCA Monique 633 D55 3308NA 0:33:54 3809
41 VUILLET Christian 2712 H60 2105BF 0:34:01 3796
42 RIETHMULLER Mathilde 19219 D16 6806GE 0:34:34 3735
43 TINCHANT Jean-Marc 746 H65 2517BF 0:34:40 3724
44 FOURGASSIE Alain 636 H60 3308NA 0:35:03 3684
45 LEPERQUE Ophelie 20200 D16 6208HF 0:35:07 3677
46 DEFIX Anne-Claire 21435 D16 4203AR 0:35:25 3646
47 NATALI Pierre 1107 H60 8105OC 0:35:27 3642
48 LEFRANÇOIS Gérard 1938 H60 9502IF 0:35:43 3615
49 CRETE Camille 18828 D16 6008HF 0:35:56 3593
50 GATY Daniele 841 D55 4203AR 0:35:59 3588
51 ASSANTE Gerard 19382 H65 3801AR 0:36:23 3549
52 SELINGUE Cécile 20224 D16 6208HF 0:36:26 3544
53 REYNAUD Renée 8868 D50 6307AR 0:36:28 3541
54 GANZITTI Alexandre 3108 H60 9006BF 0:36:32 3534
55 COMBET Annie 813 D50 4203AR 0:36:42 3518
56 DURIEUX Pierre 2571 H60 7703IF 0:36:55 3497
57 LEPOUPON Andre 1605 H60 1307PZ 0:36:59 3491
58 VOGT Christiane 2557 D60 6709GE 0:37:01 3488
59 FRANTZ Francoise 6886 D60 2904BR 0:37:16 3465
60 CLERC Anne 4272 D50 0404PZ 0:37:18 3461
61 FALCOZ Estelle 20410 D16 7305AR 0:37:23 3454
62 PERONNO Annie 9477 D50 2104BF 0:37:37 3432
63 BRISSARD Virginie 22893 D16 1705NA 0:37:56 3404
64 BAYLE Odile 12359 D55 7404AR 0:37:58 3401
65 BOYER Bernard 2294 H60 8702NA 0:38:13 3378
66 CAMAS Mandye 19238 D16 5907HF 0:38:19 3370
67 CHARIAU Michel 3356 H60 7715IF 0:38:31 3352
68 TOULEMONDE Camille 19362 D16 9502IF 0:38:31 3352
69 GROSJEAN A-Marie 12059 D70 6913AR 0:38:38 3342
70 BEHOTEGUY Bernard 1262 H60 9202IF 0:38:40 3339
71 RICHARD Nicole 14245 D60 0207HF 0:38:44 3333
72 ROBERT Martine 1087 D60 7004BF 0:38:50 3325
73 BOULANGER Isabelle 10639 D50 5907HF 0:38:53 3321
74 BRUNEL Marie-Jo 8761 D55 8903BF 0:38:58 3313
75 GUIGUET Michel 455 H65 3801AR 0:39:13 3292
76 THIEBAULT Monique 5033 D60 3319NA 0:39:24 3277
77 DEVILLE Nelly 2401 D60 5402GE 0:40:36 3180
78 DELI Francoise 1152 D55 8311PZ 0:41:09 3138
79 LEFOUEST Joseph 1000 H70 2904BR 0:41:19 3125
80 LOUAT Aime 12192 H60 8903BF 0:41:19 3125
81 GANDON J-Claude 249 H65 6906AR 0:41:37 3102
82 DELALANDE Joël 3262 H60 3506BR 0:41:44 3094
83 ROBERT Francoise 6491 D60 6913AR 0:41:53 3083
84 LORRE Annie 1756 D55 0615PZ 0:41:55 3080
85 SIX Pauline 20215 D16 5906HF 0:42:00 3074
86 GROSJEAN Pierre 12354 H70 6913AR 0:42:01 3073
87 ARMBRUSTER Marie 2952 D50 2508BF 0:42:08 3064
88 LE NAOUR Gaelle 18142 D50 2904BR 0:42:56 3007
89 MEYER Corinne 1909 D50 6804GE 0:43:28 2970
90 THIEBAULT J-Philippe 5533 H60 6804GE 0:43:30 2968
91 WIBART Martine 1956 D50 9502IF 0:43:33 2965
92 LAMINETTE M-Odile 17201 D50 5907HF 0:44:15 2918
93 MANSUY Laurette 9438 D50 8809GE 0:44:58 2871
94 JEANPIERRE M-Therese 3302 D65 8809GE 0:46:16 2791
95 DUCOS Elisabeth 4126 D50 4704NA 0:46:21 2786
96 MOULIERE M-Bernadette 2888 D65 0207HF 0:46:30 2777
97 DUBROCA J-Michel 4507 H60 3308NA 0:47:29 2719
98 MARTINEZ Catherine 7833 D50 4012NA 0:47:44 2705
99 DIEUDONNE Madeleine 1380 D60 7808IF 0:47:52 2697
100 SCHREIBER J-Marie 1919 H60 6804GE 0:48:25 2667
101 GOURLAIN Mathilde 18299 D16 6205HF 0:48:33 2659
102 LACOMBE J-Pierre 13706 H60 8104OC 0:48:43 2650
103 VILLEDIEU Martine 13752 D55 6913AR 0:48:56 2639
104 BOUCHE Sylvie 7520 D50 9105IF 0:49:06 2630
105 CABON Monique 96 D60 2904BR 0:49:10 2626
106 BOCQUET Pascale 12715 D50 4010NA 0:49:12 2624
107 DUVAL Jacques 2524 H60 5703GE 0:49:16 2621
108 BOUVERET Michelle 12102 D55 2517BF 0:50:04 2579
109 POGU Paulette 4671 D60 5402GE 0:50:19 2566
110 BEGUINOT Jacques 1443 H70 5501GE 0:50:21 2564
111 CAZALA Dominique 14876 D50 3308NA 0:50:33 2554
112 GEOFFROY Nicole 6443 D60 3408OC 0:50:39 2549
113 JOURDAN Cindy 23286 D16 2606AR 0:50:40 2548
114 PITAVAL Sylvie 12060 D50 4201AR 0:51:47 2493
115 MAIRE Candice 20170 D16 8807GE 0:51:48 2493
116 DRAULT J-Raymond 4234 H65 8702NA 0:52:11 2474
117 DIEUDONNE Roland 1381 H65 7808IF 0:52:15 2471
118 EVEN Laurie 8828 D16 2206BR 0:52:48 2445
119 GERBEAUX Marie-jeanne 22417 D55 6205HF 0:53:33 2411
120 GUINET Laurence 9059 D50 8315PZ 0:53:44 2403
121 COCAUT Yvonne 5497 D60 5604BR 0:53:49 2399
122 GUET Martine 11810 D55 6906AR 0:53:52 2397
123 BAUDOIN Annie 16634 D60 0615PZ 0:54:00 2391
124 POUPIER Claudine 13991 D60 7203PL 0:54:02 2390
125 GREVET Claudie 15296 D50 6806GE 0:54:34 2366
126 BOURRIN M-Francoise 807 D55 4203AR 0:54:47 2357
127 ARROQUI Mathilde 23425 D16 5909HF 0:55:14 2338
128 SIRAT Catherine 406 D50 3319NA 0:55:23 2331
129 SUTTER Odile 2387 D50 6806GE 0:56:39 2279
130 LECOYER Annick 2885 D55 0207HF 0:57:54 2230
131 VERGE Evelyne 12787 D50 4601OC 0:58:05 2223
132 ROUX Annie 1628 D55 1307PZ 0:58:07 2222
133 BREMAUD Veronique 5804 D50 1202OC 0:59:36 2166
134 BASTIEN-FATH Nicole 8954 D60 5413GE 1:01:19 2106
135 KIEFFER Mireille 2680 D60 2101BF 1:01:30 2099
136 BAUDRY J-Claude 1693 H65 1705NA 1:01:45 2091
137 NATALI Annie 1106 D60 8105OC 1:02:27 2067
138 KIEFFER J-Paul 2679 H60 2101BF 1:02:40 2060
139 PEETERS Simone 295 D70 7703IF 1:03:17 2040
140 CHAVERNAC Bruno 1416 H70 8315PZ 1:05:22 1975
141 PARIS Alain 19574 H60 7004BF 1:06:23 1945
142 ALLANCON Claudine 14632 D60 2906BR 1:06:29 1942
143 LEFOUEST M-Therese 1001 D70 2904BR 1:07:52 1902
144 LAUNEY Noella 11368 D70 7203PL 1:09:55 1847
145 BOUSQUET Michel 1438 H70 9504IF 1:14:27 1734
146 LUDEWIG-JAMES Carol 15894 D70 5907HF 1:17:58 1656
147 DUBOIS Sylvie 14002 D50 7709IF 1:20:33 1603
148 BLAUDEZ Jocelyne 14078 D60 8807GE 1:27:13 1480
149 CHAVERNAC Chantal 1417 D70 8315PZ 1:28:15 1463
150 VERT Genevieve 3918 D60 8315PZ 1:49:35 1178
SCHREIBER Brigitte 1918 D55 6804GE pm 0
MANO Claudio 3137 H60 2104BF pm 0
MAZARS GIRARDET Emeline 22972 D16 6307AR pm 0
RIAULT Bernard 2555 H65 6804GE pm 0
SIMONET Marie 931 D60 7707IF pm 0